Terminal Aerodrome Forecast
Issued by NWS Buffalo, NY

Home | Current Version | Previous Version | Text Only | Print | Product List | Glossary On
Versions: 1 2 3 4 5 6 7 8 9 10 11 12 13 14 15 16 17 18 19 20 21 22 23 24 25 26 27 28 29 30 31
000
FTUS41 KBUF 300339 AAA
TAFROC
TAF AMD
KROC 300339Z 3004/3024 VRB03KT P6SM BKN200
     FM300800 VRB03KT P6SM VCSH OVC070
     FM300900 15004KT 6SM -SHRA VCTS OVC060CB
     FM301200 14007KT P6SM VCSH OVC045
     FM301600 13010KT P6SM VCSH OVC035
     FM302000 16004KT 6SM -SHRA VCTS OVC025CB
     FM302300 VRB03KT P6SM VCSH OVC025=

USA.gov is the U.S. government's official web portal to all federal, state and local government web resources and services.